Terminal Aerodrome Forecast
Issued by NWS

Home | Current Version | Previous Version | Text Only | Print | Product List | Glossary On
Versions: 1 2 3 4 5 6 7 8 9 10 11 12 13 14 15 16 17 18 19 20
000
FTUS44 KBMX 241907 AAA
TAFEET
TAF AMD
KEET 241907Z 2419/2518 18009G18KT P6SM VCSH BKN025 BKN030
     FM251000 19012G24KT 3SM RA OVC010
     FM251600 31010G20KT P6SM SHRA OVC015=

USA.gov is the U.S. government's official web portal to all federal, state and local government web resources and services.